Terminal Aerodrome Forecast
Issued by NWS

Home | Current Version | Previous Version | Text Only | Print | Product List | Glossary On
Versions: 1 2 3 4 5 6 7 8 9 10 11 12 13 14 15 16 17 18 19 20 21 22 23 24 25 26 27 28 29 30 31
098
FTUS44 KFWD 070909 AAA
TAFFTW
TAF AMD
KFTW 070909Z 0709/0806 35005KT P6SM SCT035
      TEMPO 0709/0713 BKN035
     FM071500 10004KT P6SM BKN040
     FM072200 35016KT P6SM BKN015
     FM080200 36018G28KT P6SM BKN035=

USA.gov is the U.S. government's official web portal to all federal, state and local government web resources and services.